sensor_id;sensor_type;location;lat;lon;timestamp;P1;durP1;ratioP1;P2;durP2;ratioP2
15624;SDS011;7912;51.376;6.126;2022-07-29T00:02:12;3.63;;;1.83;;
15624;SDS011;7912;51.376;6.126;2022-07-29T00:05:01;2.43;;;1.50;;
15624;SDS011;7912;51.376;6.126;2022-07-29T00:07:41;2.33;;;1.50;;
15624;SDS011;7912;51.376;6.126;2022-07-29T00:10:08;2.43;;;1.60;;
15624;SDS011;7912;51.376;6.126;2022-07-29T00:16:25;2.90;;;1.60;;
15624;SDS011;7912;51.376;6.126;2022-07-29T00:19:16;2.80;;;1.60;;
15624;SDS011;7912;51.376;6.126;2022-07-29T00:22:20;3.40;;;1.60;;
15624;SDS011;7912;51.376;6.126;2022-07-29T00:25:07;1.87;;;1.40;;
15624;SDS011;7912;51.376;6.126;2022-07-29T00:27:48;3.40;;;1.90;;
15624;SDS011;7912;51.376;6.126;2022-07-29T00:30:16;2.50;;;1.70;;
15624;SDS011;7912;51.376;6.126;2022-07-29T00:32:52;4.50;;;1.87;;
15624;SDS011;7912;51.376;6.126;2022-07-29T00:35:19;2.03;;;1.70;;
15624;SDS011;7912;51.376;6.126;2022-07-29T00:38:35;1.80;;;1.70;;
15624;SDS011;7912;51.376;6.126;2022-07-29T00:41:07;3.73;;;1.63;;
15624;SDS011;7912;51.376;6.126;2022-07-29T00:43:45;1.70;;;1.53;;
15624;SDS011;7912;51.376;6.126;2022-07-29T00:46:20;3.70;;;1.50;;
15624;SDS011;7912;51.376;6.126;2022-07-29T00:48:53;3.40;;;1.70;;
15624;SDS011;7912;51.376;6.126;2022-07-29T00:56:56;3.47;;;1.57;;
15624;SDS011;7912;51.376;6.126;2022-07-29T00:59:55;3.23;;;1.67;;
15624;SDS011;7912;51.376;6.126;2022-07-29T01:03:07;2.07;;;1.60;;
15624;SDS011;7912;51.376;6.126;2022-07-29T01:05:57;3.10;;;1.80;;
15624;SDS011;7912;51.376;6.126;2022-07-29T01:12:14;4.90;;;1.70;;
15624;SDS011;7912;51.376;6.126;2022-07-29T01:14:58;3.23;;;1.70;;
15624;SDS011;7912;51.376;6.126;2022-07-29T01:18:42;2.50;;;1.70;;
15624;SDS011;7912;51.376;6.126;2022-07-29T01:21:55;2.70;;;1.70;;
15624;SDS011;7912;51.376;6.126;2022-07-29T01:29:24;3.70;;;2.27;;
15624;SDS011;7912;51.376;6.126;2022-07-29T01:40:05;4.00;;;2.03;;
15624;SDS011;7912;51.376;6.126;2022-07-29T01:43:23;3.07;;;2.00;;
15624;SDS011;7912;51.376;6.126;2022-07-29T01:46:44;3.97;;;1.93;;
15624;SDS011;7912;51.376;6.126;2022-07-29T01:49:45;3.80;;;2.03;;
15624;SDS011;7912;51.376;6.126;2022-07-29T01:56:19;2.20;;;2.00;;
15624;SDS011;7912;51.376;6.126;2022-07-29T01:59:07;4.13;;;2.00;;
15624;SDS011;7912;51.376;6.126;2022-07-29T02:03:01;8.70;;;2.00;;
15624;SDS011;7912;51.376;6.126;2022-07-29T02:05:45;3.90;;;2.17;;
15624;SDS011;7912;51.376;6.126;2022-07-29T02:08:37;3.77;;;2.07;;
15624;SDS011;7912;51.376;6.126;2022-07-29T02:11:30;3.80;;;2.17;;
15624;SDS011;7912;51.376;6.126;2022-07-29T02:14:05;5.23;;;2.23;;
15624;SDS011;7912;51.376;6.126;2022-07-29T02:16:41;4.90;;;2.00;;
15624;SDS011;7912;51.376;6.126;2022-07-29T02:19:11;4.40;;;2.47;;
15624;SDS011;7912;51.376;6.126;2022-07-29T02:21:41;4.40;;;2.30;;
15624;SDS011;7912;51.376;6.126;2022-07-29T02:24:11;4.97;;;2.40;;
15624;SDS011;7912;51.376;6.126;2022-07-29T02:26:43;3.30;;;2.13;;
15624;SDS011;7912;51.376;6.126;2022-07-29T02:29:12;5.07;;;2.00;;
15624;SDS011;7912;51.376;6.126;2022-07-29T02:31:41;4.07;;;2.43;;
15624;SDS011;7912;51.376;6.126;2022-07-29T02:34:13;4.03;;;2.47;;
15624;SDS011;7912;51.376;6.126;2022-07-29T02:36:45;2.70;;;2.30;;
15624;SDS011;7912;51.376;6.126;2022-07-29T02:39:14;3.47;;;2.27;;
15624;SDS011;7912;51.376;6.126;2022-07-29T02:41:46;3.87;;;2.13;;
15624;SDS011;7912;51.376;6.126;2022-07-29T02:44:19;3.63;;;2.30;;
15624;SDS011;7912;51.376;6.126;2022-07-29T02:46:55;5.87;;;2.60;;
15624;SDS011;7912;51.376;6.126;2022-07-29T02:55:51;4.40;;;2.40;;
15624;SDS011;7912;51.376;6.126;2022-07-29T02:58:38;4.20;;;2.47;;
15624;SDS011;7912;51.376;6.126;2022-07-29T03:01:16;3.80;;;2.80;;
15624;SDS011;7912;51.376;6.126;2022-07-29T03:03:50;3.77;;;2.73;;
15624;SDS011;7912;51.376;6.126;2022-07-29T03:06:21;3.50;;;2.70;;
15624;SDS011;7912;51.376;6.126;2022-07-29T03:09:03;4.77;;;2.63;;
15624;SDS011;7912;51.376;6.126;2022-07-29T03:11:39;5.10;;;2.80;;
15624;SDS011;7912;51.376;6.126;2022-07-29T03:14:16;5.70;;;2.97;;
15624;SDS011;7912;51.376;6.126;2022-07-29T03:16:46;3.90;;;2.67;;
15624;SDS011;7912;51.376;6.126;2022-07-29T03:19:15;3.40;;;2.50;;
15624;SDS011;7912;51.376;6.126;2022-07-29T03:21:44;4.47;;;2.37;;
15624;SDS011;7912;51.376;6.126;2022-07-29T03:24:28;3.20;;;2.40;;
15624;SDS011;7912;51.376;6.126;2022-07-29T03:27:02;2.93;;;2.37;;
15624;SDS011;7912;51.376;6.126;2022-07-29T03:29:31;2.37;;;2.10;;
15624;SDS011;7912;51.376;6.126;2022-07-29T03:32:01;4.90;;;2.17;;
15624;SDS011;7912;51.376;6.126;2022-07-29T03:34:34;4.03;;;2.20;;
15624;SDS011;7912;51.376;6.126;2022-07-29T03:37:04;4.23;;;2.27;;
15624;SDS011;7912;51.376;6.126;2022-07-29T03:39:35;3.37;;;2.30;;
15624;SDS011;7912;51.376;6.126;2022-07-29T03:42:08;5.77;;;2.30;;
15624;SDS011;7912;51.376;6.126;2022-07-29T03:44:41;3.07;;;2.40;;
15624;SDS011;7912;51.376;6.126;2022-07-29T03:47:12;5.10;;;2.60;;
15624;SDS011;7912;51.376;6.126;2022-07-29T03:49:46;4.40;;;2.30;;
15624;SDS011;7912;51.376;6.126;2022-07-29T03:52:18;3.47;;;2.30;;
15624;SDS011;7912;51.376;6.126;2022-07-29T03:54:46;3.03;;;2.17;;
15624;SDS011;7912;51.376;6.126;2022-07-29T03:57:14;2.97;;;2.10;;
15624;SDS011;7912;51.376;6.126;2022-07-29T03:59:45;3.40;;;2.30;;
15624;SDS011;7912;51.376;6.126;2022-07-29T04:02:13;3.03;;;2.37;;
15624;SDS011;7912;51.376;6.126;2022-07-29T04:04:47;4.50;;;2.60;;
15624;SDS011;7912;51.376;6.126;2022-07-29T04:07:15;3.93;;;2.50;;
15624;SDS011;7912;51.376;6.126;2022-07-29T04:09:42;3.20;;;2.37;;
15624;SDS011;7912;51.376;6.126;2022-07-29T04:12:09;6.47;;;2.40;;
15624;SDS011;7912;51.376;6.126;2022-07-29T04:14:37;4.73;;;2.60;;
15624;SDS011;7912;51.376;6.126;2022-07-29T04:17:05;4.10;;;2.43;;
15624;SDS011;7912;51.376;6.126;2022-07-29T04:19:32;6.20;;;2.67;;
15624;SDS011;7912;51.376;6.126;2022-07-29T04:22:00;3.67;;;2.40;;
15624;SDS011;7912;51.376;6.126;2022-07-29T04:24:28;2.93;;;2.50;;
15624;SDS011;7912;51.376;6.126;2022-07-29T04:26:55;3.47;;;2.33;;
15624;SDS011;7912;51.376;6.126;2022-07-29T04:29:22;4.57;;;2.53;;
15624;SDS011;7912;51.376;6.126;2022-07-29T04:31:50;3.50;;;2.63;;
15624;SDS011;7912;51.376;6.126;2022-07-29T04:34:18;7.90;;;3.30;;
15624;SDS011;7912;51.376;6.126;2022-07-29T04:36:46;6.93;;;3.30;;
15624;SDS011;7912;51.376;6.126;2022-07-29T04:39:13;3.47;;;2.93;;
15624;SDS011;7912;51.376;6.126;2022-07-29T04:41:47;4.27;;;2.70;;
15624;SDS011;7912;51.376;6.126;2022-07-29T04:44:20;3.77;;;2.50;;
15624;SDS011;7912;51.376;6.126;2022-07-29T04:46:53;4.53;;;2.90;;
15624;SDS011;7912;51.376;6.126;2022-07-29T04:49:21;5.30;;;2.80;;
15624;SDS011;7912;51.376;6.126;2022-07-29T04:51:49;4.90;;;2.90;;
15624;SDS011;7912;51.376;6.126;2022-07-29T04:54:16;5.13;;;3.23;;
15624;SDS011;7912;51.376;6.126;2022-07-29T04:56:44;3.97;;;3.13;;
15624;SDS011;7912;51.376;6.126;2022-07-29T04:59:13;4.27;;;3.10;;
15624;SDS011;7912;51.376;6.126;2022-07-29T05:01:40;4.87;;;3.53;;
15624;SDS011;7912;51.376;6.126;2022-07-29T05:04:08;4.93;;;3.77;;
15624;SDS011;7912;51.376;6.126;2022-07-29T05:06:35;3.60;;;3.30;;
15624;SDS011;7912;51.376;6.126;2022-07-29T05:09:02;5.77;;;3.90;;
15624;SDS011;7912;51.376;6.126;2022-07-29T05:11:30;5.77;;;4.00;;
15624;SDS011;7912;51.376;6.126;2022-07-29T05:13:57;5.63;;;3.90;;
15624;SDS011;7912;51.376;6.126;2022-07-29T05:16:25;5.37;;;3.67;;
15624;SDS011;7912;51.376;6.126;2022-07-29T05:18:53;6.07;;;4.30;;
15624;SDS011;7912;51.376;6.126;2022-07-29T05:21:21;5.30;;;3.90;;
15624;SDS011;7912;51.376;6.126;2022-07-29T05:23:48;5.97;;;3.63;;
15624;SDS011;7912;51.376;6.126;2022-07-29T05:26:15;6.17;;;3.73;;
15624;SDS011;7912;51.376;6.126;2022-07-29T05:28:43;4.63;;;3.70;;
15624;SDS011;7912;51.376;6.126;2022-07-29T05:31:10;5.33;;;3.70;;
15624;SDS011;7912;51.376;6.126;2022-07-29T05:33:38;3.93;;;3.43;;
15624;SDS011;7912;51.376;6.126;2022-07-29T05:36:06;4.27;;;3.20;;
15624;SDS011;7912;51.376;6.126;2022-07-29T05:38:34;4.07;;;3.30;;
15624;SDS011;7912;51.376;6.126;2022-07-29T05:41:03;5.83;;;3.70;;
15624;SDS011;7912;51.376;6.126;2022-07-29T05:43:35;3.87;;;2.87;;
15624;SDS011;7912;51.376;6.126;2022-07-29T05:46:05;6.20;;;3.67;;
15624;SDS011;7912;51.376;6.126;2022-07-29T05:48:32;5.13;;;3.30;;
15624;SDS011;7912;51.376;6.126;2022-07-29T05:51:01;4.17;;;3.17;;
15624;SDS011;7912;51.376;6.126;2022-07-29T05:53:29;3.93;;;3.50;;
15624;SDS011;7912;51.376;6.126;2022-07-29T05:55:57;4.90;;;3.60;;
15624;SDS011;7912;51.376;6.126;2022-07-29T05:58:24;4.13;;;3.57;;
15624;SDS011;7912;51.376;6.126;2022-07-29T06:00:51;4.67;;;3.40;;
15624;SDS011;7912;51.376;6.126;2022-07-29T06:03:19;3.67;;;3.23;;
15624;SDS011;7912;51.376;6.126;2022-07-29T06:05:46;3.90;;;3.50;;
15624;SDS011;7912;51.376;6.126;2022-07-29T06:08:14;5.13;;;3.80;;
15624;SDS011;7912;51.376;6.126;2022-07-29T06:10:41;5.73;;;3.70;;
15624;SDS011;7912;51.376;6.126;2022-07-29T06:13:09;6.10;;;3.60;;
15624;SDS011;7912;51.376;6.126;2022-07-29T06:15:36;5.67;;;3.17;;
15624;SDS011;7912;51.376;6.126;2022-07-29T06:18:04;3.80;;;3.40;;
15624;SDS011;7912;51.376;6.126;2022-07-29T06:20:38;5.97;;;3.53;;
15624;SDS011;7912;51.376;6.126;2022-07-29T06:23:06;5.57;;;3.53;;
15624;SDS011;7912;51.376;6.126;2022-07-29T06:25:34;5.10;;;3.70;;
15624;SDS011;7912;51.376;6.126;2022-07-29T06:28:03;5.53;;;3.37;;
15624;SDS011;7912;51.376;6.126;2022-07-29T06:30:30;3.77;;;3.47;;
15624;SDS011;7912;51.376;6.126;2022-07-29T06:32:58;5.83;;;4.20;;
15624;SDS011;7912;51.376;6.126;2022-07-29T06:35:26;7.17;;;3.80;;
15624;SDS011;7912;51.376;6.126;2022-07-29T06:38:06;6.17;;;3.53;;
15624;SDS011;7912;51.376;6.126;2022-07-29T06:43:42;3.87;;;3.50;;
15624;SDS011;7912;51.376;6.126;2022-07-29T06:46:20;4.73;;;3.97;;
15624;SDS011;7912;51.376;6.126;2022-07-29T06:48:49;4.93;;;3.67;;
15624;SDS011;7912;51.376;6.126;2022-07-29T06:51:18;4.67;;;3.73;;
15624;SDS011;7912;51.376;6.126;2022-07-29T06:53:49;4.70;;;3.80;;
15624;SDS011;7912;51.376;6.126;2022-07-29T06:56:28;4.47;;;3.90;;
15624;SDS011;7912;51.376;6.126;2022-07-29T06:59:05;4.43;;;3.60;;
15624;SDS011;7912;51.376;6.126;2022-07-29T07:01:35;5.73;;;4.10;;
15624;SDS011;7912;51.376;6.126;2022-07-29T07:06:50;4.27;;;3.87;;
15624;SDS011;7912;51.376;6.126;2022-07-29T07:09:18;5.57;;;3.70;;
15624;SDS011;7912;51.376;6.126;2022-07-29T07:11:45;3.80;;;3.50;;
15624;SDS011;7912;51.376;6.126;2022-07-29T07:14:15;3.90;;;3.60;;
15624;SDS011;7912;51.376;6.126;2022-07-29T07:16:43;4.00;;;3.70;;
15624;SDS011;7912;51.376;6.126;2022-07-29T07:19:10;4.17;;;3.50;;
15624;SDS011;7912;51.376;6.126;2022-07-29T07:21:39;5.00;;;3.47;;
15624;SDS011;7912;51.376;6.126;2022-07-29T07:24:06;5.77;;;3.93;;
15624;SDS011;7912;51.376;6.126;2022-07-29T07:26:34;5.67;;;4.03;;
15624;SDS011;7912;51.376;6.126;2022-07-29T07:29:01;5.23;;;3.63;;
15624;SDS011;7912;51.376;6.126;2022-07-29T07:31:28;6.10;;;3.90;;
15624;SDS011;7912;51.376;6.126;2022-07-29T07:33:56;4.33;;;3.93;;
15624;SDS011;7912;51.376;6.126;2022-07-29T07:36:24;4.20;;;3.80;;
15624;SDS011;7912;51.376;6.126;2022-07-29T07:38:52;4.40;;;3.67;;
15624;SDS011;7912;51.376;6.126;2022-07-29T07:41:20;6.23;;;3.73;;
15624;SDS011;7912;51.376;6.126;2022-07-29T07:43:48;4.90;;;3.57;;
15624;SDS011;7912;51.376;6.126;2022-07-29T07:46:15;3.67;;;3.37;;
15624;SDS011;7912;51.376;6.126;2022-07-29T07:48:43;4.80;;;3.67;;
15624;SDS011;7912;51.376;6.126;2022-07-29T07:51:10;4.50;;;3.70;;
15624;SDS011;7912;51.376;6.126;2022-07-29T07:53:38;5.60;;;3.43;;
15624;SDS011;7912;51.376;6.126;2022-07-29T07:56:06;4.13;;;3.70;;
15624;SDS011;7912;51.376;6.126;2022-07-29T07:58:37;6.50;;;3.87;;
15624;SDS011;7912;51.376;6.126;2022-07-29T08:01:05;4.53;;;3.90;;
15624;SDS011;7912;51.376;6.126;2022-07-29T08:03:33;4.70;;;3.80;;
15624;SDS011;7912;51.376;6.126;2022-07-29T08:06:00;4.50;;;4.03;;
15624;SDS011;7912;51.376;6.126;2022-07-29T08:08:29;5.40;;;4.27;;
15624;SDS011;7912;51.376;6.126;2022-07-29T08:10:58;5.57;;;3.73;;
15624;SDS011;7912;51.376;6.126;2022-07-29T08:13:34;4.70;;;4.30;;
15624;SDS011;7912;51.376;6.126;2022-07-29T08:16:05;4.67;;;4.20;;
15624;SDS011;7912;51.376;6.126;2022-07-29T08:18:42;5.30;;;4.37;;
15624;SDS011;7912;51.376;6.126;2022-07-29T08:21:11;5.67;;;4.50;;
15624;SDS011;7912;51.376;6.126;2022-07-29T08:23:41;5.77;;;4.77;;
15624;SDS011;7912;51.376;6.126;2022-07-29T08:26:24;5.30;;;4.37;;
15624;SDS011;7912;51.376;6.126;2022-07-29T08:28:51;6.10;;;4.60;;
15624;SDS011;7912;51.376;6.126;2022-07-29T08:31:19;4.67;;;4.27;;
15624;SDS011;7912;51.376;6.126;2022-07-29T08:33:46;5.10;;;4.30;;
15624;SDS011;7912;51.376;6.126;2022-07-29T08:36:14;5.00;;;4.50;;
15624;SDS011;7912;51.376;6.126;2022-07-29T08:38:42;4.87;;;4.33;;
15624;SDS011;7912;51.376;6.126;2022-07-29T08:41:09;4.73;;;4.30;;
15624;SDS011;7912;51.376;6.126;2022-07-29T08:43:37;5.10;;;4.50;;
15624;SDS011;7912;51.376;6.126;2022-07-29T08:46:07;5.53;;;4.57;;
15624;SDS011;7912;51.376;6.126;2022-07-29T08:48:35;5.30;;;4.80;;
15624;SDS011;7912;51.376;6.126;2022-07-29T08:51:03;5.37;;;4.97;;
15624;SDS011;7912;51.376;6.126;2022-07-29T08:53:35;4.90;;;4.47;;
15624;SDS011;7912;51.376;6.126;2022-07-29T08:56:04;6.80;;;4.67;;
15624;SDS011;7912;51.376;6.126;2022-07-29T08:58:33;6.30;;;5.70;;
15624;SDS011;7912;51.376;6.126;2022-07-29T09:01:03;5.87;;;5.00;;
15624;SDS011;7912;51.376;6.126;2022-07-29T09:03:36;7.20;;;5.30;;
15624;SDS011;7912;51.376;6.126;2022-07-29T09:06:06;6.37;;;5.50;;
15624;SDS011;7912;51.376;6.126;2022-07-29T09:08:34;5.93;;;5.33;;
15624;SDS011;7912;51.376;6.126;2022-07-29T09:11:01;5.03;;;4.50;;
15624;SDS011;7912;51.376;6.126;2022-07-29T09:13:30;6.60;;;4.63;;
15624;SDS011;7912;51.376;6.126;2022-07-29T09:15:58;8.83;;;5.50;;
15624;SDS011;7912;51.376;6.126;2022-07-29T09:18:34;4.47;;;4.07;;
15624;SDS011;7912;51.376;6.126;2022-07-29T09:21:11;5.87;;;4.60;;
15624;SDS011;7912;51.376;6.126;2022-07-29T09:24:08;4.57;;;3.97;;
15624;SDS011;7912;51.376;6.126;2022-07-29T09:26:43;5.53;;;4.37;;
15624;SDS011;7912;51.376;6.126;2022-07-29T09:29:16;6.63;;;4.13;;
15624;SDS011;7912;51.376;6.126;2022-07-29T09:31:49;5.17;;;4.33;;
15624;SDS011;7912;51.376;6.126;2022-07-29T09:34:26;4.77;;;3.80;;
15624;SDS011;7912;51.376;6.126;2022-07-29T09:36:57;4.87;;;4.00;;
15624;SDS011;7912;51.376;6.126;2022-07-29T09:42:05;4.57;;;4.17;;
15624;SDS011;7912;51.376;6.126;2022-07-29T09:47:17;5.10;;;4.07;;
15624;SDS011;7912;51.376;6.126;2022-07-29T09:49:57;6.53;;;3.93;;
15624;SDS011;7912;51.376;6.126;2022-07-29T09:52:26;4.30;;;3.90;;
15624;SDS011;7912;51.376;6.126;2022-07-29T09:55:09;5.27;;;3.90;;
15624;SDS011;7912;51.376;6.126;2022-07-29T09:57:43;4.30;;;3.90;;
15624;SDS011;7912;51.376;6.126;2022-07-29T10:00:15;5.90;;;4.10;;
15624;SDS011;7912;51.376;6.126;2022-07-29T10:02:46;4.43;;;4.03;;
15624;SDS011;7912;51.376;6.126;2022-07-29T10:05:19;4.20;;;3.80;;
15624;SDS011;7912;51.376;6.126;2022-07-29T10:13:00;4.10;;;3.13;;
15624;SDS011;7912;51.376;6.126;2022-07-29T10:15:36;6.63;;;4.00;;
15624;SDS011;7912;51.376;6.126;2022-07-29T10:18:08;4.90;;;4.23;;
15624;SDS011;7912;51.376;6.126;2022-07-29T10:20:48;4.90;;;4.10;;
15624;SDS011;7912;51.376;6.126;2022-07-29T10:23:16;5.73;;;4.00;;
15624;SDS011;7912;51.376;6.126;2022-07-29T10:25:45;4.50;;;3.93;;
15624;SDS011;7912;51.376;6.126;2022-07-29T10:28:12;5.83;;;3.90;;
15624;SDS011;7912;51.376;6.126;2022-07-29T10:30:42;5.27;;;4.20;;
15624;SDS011;7912;51.376;6.126;2022-07-29T10:44:45;4.73;;;3.73;;
15624;SDS011;7912;51.376;6.126;2022-07-29T10:47:34;4.80;;;4.27;;
15624;SDS011;7912;51.376;6.126;2022-07-29T10:50:02;5.17;;;4.10;;
15624;SDS011;7912;51.376;6.126;2022-07-29T10:55:35;5.10;;;3.77;;
15624;SDS011;7912;51.376;6.126;2022-07-29T11:00:51;4.50;;;4.07;;
15624;SDS011;7912;51.376;6.126;2022-07-29T11:03:43;4.20;;;3.90;;
15624;SDS011;7912;51.376;6.126;2022-07-29T11:06:15;5.47;;;4.70;;
15624;SDS011;7912;51.376;6.126;2022-07-29T11:12:00;4.77;;;4.37;;
15624;SDS011;7912;51.376;6.126;2022-07-29T11:17:23;3.70;;;3.40;;
15624;SDS011;7912;51.376;6.126;2022-07-29T11:19:51;4.07;;;3.60;;
15624;SDS011;7912;51.376;6.126;2022-07-29T11:22:58;3.67;;;3.30;;
15624;SDS011;7912;51.376;6.126;2022-07-29T11:25:26;4.20;;;3.80;;
15624;SDS011;7912;51.376;6.126;2022-07-29T11:28:16;4.20;;;3.60;;
15624;SDS011;7912;51.376;6.126;2022-07-29T11:30:51;4.40;;;4.03;;
15624;SDS011;7912;51.376;6.126;2022-07-29T11:33:29;3.67;;;3.40;;
15624;SDS011;7912;51.376;6.126;2022-07-29T11:36:27;3.97;;;3.57;;
15624;SDS011;7912;51.376;6.126;2022-07-29T11:39:24;4.47;;;3.83;;
15624;SDS011;7912;51.376;6.126;2022-07-29T11:44:59;3.70;;;3.40;;
15624;SDS011;7912;51.376;6.126;2022-07-29T11:47:52;4.20;;;3.57;;
15624;SDS011;7912;51.376;6.126;2022-07-29T11:50:33;4.20;;;3.70;;
15624;SDS011;7912;51.376;6.126;2022-07-29T11:53:10;3.77;;;3.40;;
15624;SDS011;7912;51.376;6.126;2022-07-29T11:55:41;4.93;;;4.03;;
15624;SDS011;7912;51.376;6.126;2022-07-29T11:58:21;5.90;;;3.60;;
15624;SDS011;7912;51.376;6.126;2022-07-29T12:00:51;5.83;;;3.60;;
15624;SDS011;7912;51.376;6.126;2022-07-29T12:03:25;4.77;;;3.43;;
15624;SDS011;7912;51.376;6.126;2022-07-29T12:06:00;4.43;;;3.47;;
15624;SDS011;7912;51.376;6.126;2022-07-29T12:08:41;4.27;;;3.43;;
15624;SDS011;7912;51.376;6.126;2022-07-29T12:11:19;3.40;;;3.13;;
15624;SDS011;7912;51.376;6.126;2022-07-29T12:13:51;7.23;;;3.30;;
15624;SDS011;7912;51.376;6.126;2022-07-29T12:16:20;3.77;;;2.87;;
15624;SDS011;7912;51.376;6.126;2022-07-29T12:18:58;4.13;;;2.77;;
15624;SDS011;7912;51.376;6.126;2022-07-29T12:21:28;3.47;;;2.83;;
15624;SDS011;7912;51.376;6.126;2022-07-29T12:24:18;6.43;;;3.00;;
15624;SDS011;7912;51.376;6.126;2022-07-29T12:26:52;4.57;;;2.43;;
15624;SDS011;7912;51.376;6.126;2022-07-29T12:29:27;3.40;;;3.00;;
15624;SDS011;7912;51.376;6.126;2022-07-29T12:32:01;2.80;;;2.53;;
15624;SDS011;7912;51.376;6.126;2022-07-29T12:34:39;4.00;;;2.90;;
15624;SDS011;7912;51.376;6.126;2022-07-29T12:37:07;3.67;;;2.70;;
15624;SDS011;7912;51.376;6.126;2022-07-29T12:39:37;3.20;;;2.90;;
15624;SDS011;7912;51.376;6.126;2022-07-29T12:42:12;2.73;;;2.40;;
15624;SDS011;7912;51.376;6.126;2022-07-29T12:44:46;3.23;;;2.20;;
15624;SDS011;7912;51.376;6.126;2022-07-29T12:47:17;2.27;;;1.90;;
15624;SDS011;7912;51.376;6.126;2022-07-29T12:49:46;4.37;;;2.17;;
15624;SDS011;7912;51.376;6.126;2022-07-29T12:52:25;2.53;;;2.33;;
15624;SDS011;7912;51.376;6.126;2022-07-29T12:54:59;2.70;;;2.20;;
15624;SDS011;7912;51.376;6.126;2022-07-29T12:57:27;2.60;;;2.00;;
15624;SDS011;7912;51.376;6.126;2022-07-29T12:59:58;2.17;;;1.97;;
15624;SDS011;7912;51.376;6.126;2022-07-29T13:02:27;4.53;;;2.27;;
15624;SDS011;7912;51.376;6.126;2022-07-29T13:04:55;3.43;;;2.60;;
15624;SDS011;7912;51.376;6.126;2022-07-29T13:07:27;2.57;;;2.30;;
15624;SDS011;7912;51.376;6.126;2022-07-29T13:10:19;2.20;;;2.00;;
15624;SDS011;7912;51.376;6.126;2022-07-29T13:13:02;2.07;;;1.90;;
15624;SDS011;7912;51.376;6.126;2022-07-29T13:15:33;2.87;;;2.13;;
15624;SDS011;7912;51.376;6.126;2022-07-29T13:18:01;2.37;;;2.10;;
15624;SDS011;7912;51.376;6.126;2022-07-29T13:20:30;3.30;;;2.70;;
15624;SDS011;7912;51.376;6.126;2022-07-29T13:22:59;3.40;;;2.70;;
15624;SDS011;7912;51.376;6.126;2022-07-29T13:25:28;3.27;;;2.70;;
15624;SDS011;7912;51.376;6.126;2022-07-29T13:27:58;3.40;;;2.70;;
15624;SDS011;7912;51.376;6.126;2022-07-29T13:30:27;4.60;;;2.70;;
15624;SDS011;7912;51.376;6.126;2022-07-29T13:32:55;2.87;;;2.53;;
15624;SDS011;7912;51.376;6.126;2022-07-29T13:35:23;3.40;;;2.67;;
15624;SDS011;7912;51.376;6.126;2022-07-29T13:37:50;3.63;;;2.97;;
15624;SDS011;7912;51.376;6.126;2022-07-29T13:40:21;3.23;;;2.90;;
15624;SDS011;7912;51.376;6.126;2022-07-29T13:42:49;3.63;;;2.87;;
15624;SDS011;7912;51.376;6.126;2022-07-29T13:45:16;3.10;;;2.80;;
15624;SDS011;7912;51.376;6.126;2022-07-29T13:47:44;3.40;;;2.70;;
15624;SDS011;7912;51.376;6.126;2022-07-29T13:50:14;3.57;;;2.60;;
15624;SDS011;7912;51.376;6.126;2022-07-29T13:52:42;3.43;;;2.53;;
15624;SDS011;7912;51.376;6.126;2022-07-29T13:55:09;3.97;;;2.60;;
15624;SDS011;7912;51.376;6.126;2022-07-29T13:57:37;2.90;;;2.70;;
15624;SDS011;7912;51.376;6.126;2022-07-29T14:00:04;3.13;;;2.80;;
15624;SDS011;7912;51.376;6.126;2022-07-29T14:02:33;3.00;;;2.80;;
15624;SDS011;7912;51.376;6.126;2022-07-29T14:05:00;2.53;;;2.33;;
15624;SDS011;7912;51.376;6.126;2022-07-29T14:07:33;2.63;;;2.43;;
15624;SDS011;7912;51.376;6.126;2022-07-29T14:10:00;2.80;;;2.60;;
15624;SDS011;7912;51.376;6.126;2022-07-29T14:12:29;2.80;;;2.60;;
15624;SDS011;7912;51.376;6.126;2022-07-29T14:14:57;3.17;;;2.43;;
15624;SDS011;7912;51.376;6.126;2022-07-29T14:17:24;3.10;;;2.80;;
15624;SDS011;7912;51.376;6.126;2022-07-29T14:19:51;3.67;;;3.23;;
15624;SDS011;7912;51.376;6.126;2022-07-29T14:25:26;2.60;;;2.40;;
15624;SDS011;7912;51.376;6.126;2022-07-29T14:27:53;2.90;;;2.70;;
15624;SDS011;7912;51.376;6.126;2022-07-29T14:30:23;3.13;;;2.90;;
15624;SDS011;7912;51.376;6.126;2022-07-29T14:32:51;4.17;;;3.20;;
15624;SDS011;7912;51.376;6.126;2022-07-29T14:35:19;3.83;;;2.90;;
15624;SDS011;7912;51.376;6.126;2022-07-29T14:37:46;3.30;;;3.00;;
15624;SDS011;7912;51.376;6.126;2022-07-29T14:40:13;3.67;;;3.27;;
15624;SDS011;7912;51.376;6.126;2022-07-29T14:42:41;3.50;;;3.00;;
15624;SDS011;7912;51.376;6.126;2022-07-29T14:45:08;3.10;;;2.83;;
15624;SDS011;7912;51.376;6.126;2022-07-29T14:47:38;2.90;;;2.70;;
15624;SDS011;7912;51.376;6.126;2022-07-29T14:50:06;3.70;;;2.97;;
15624;SDS011;7912;51.376;6.126;2022-07-29T14:52:34;2.57;;;2.37;;
15624;SDS011;7912;51.376;6.126;2022-07-29T14:55:03;2.07;;;1.97;;
15624;SDS011;7912;51.376;6.126;2022-07-29T14:57:45;2.70;;;2.50;;
15624;SDS011;7912;51.376;6.126;2022-07-29T15:00:14;2.60;;;2.40;;
15624;SDS011;7912;51.376;6.126;2022-07-29T15:02:42;3.10;;;2.17;;
15624;SDS011;7912;51.376;6.126;2022-07-29T15:05:27;3.80;;;2.30;;
15624;SDS011;7912;51.376;6.126;2022-07-29T15:07:55;2.53;;;2.33;;
15624;SDS011;7912;51.376;6.126;2022-07-29T15:10:23;2.73;;;2.20;;
15624;SDS011;7912;51.376;6.126;2022-07-29T15:12:52;3.10;;;2.67;;
15624;SDS011;7912;51.376;6.126;2022-07-29T15:15:21;2.33;;;2.13;;
15624;SDS011;7912;51.376;6.126;2022-07-29T15:17:48;2.30;;;2.20;;
15624;SDS011;7912;51.376;6.126;2022-07-29T15:20:16;4.27;;;3.17;;
15624;SDS011;7912;51.376;6.126;2022-07-29T15:22:44;3.70;;;3.30;;
15624;SDS011;7912;51.376;6.126;2022-07-29T15:25:12;3.40;;;3.07;;
15624;SDS011;7912;51.376;6.126;2022-07-29T15:27:39;2.60;;;2.40;;
15624;SDS011;7912;51.376;6.126;2022-07-29T15:30:14;5.03;;;2.40;;
15624;SDS011;7912;51.376;6.126;2022-07-29T15:32:59;3.57;;;2.60;;
15624;SDS011;7912;51.376;6.126;2022-07-29T15:35:29;2.83;;;2.63;;
15624;SDS011;7912;51.376;6.126;2022-07-29T15:37:58;2.70;;;2.37;;
15624;SDS011;7912;51.376;6.126;2022-07-29T15:40:44;2.67;;;2.40;;
15624;SDS011;7912;51.376;6.126;2022-07-29T15:43:16;3.30;;;2.40;;
15624;SDS011;7912;51.376;6.126;2022-07-29T15:45:43;3.27;;;2.37;;
15624;SDS011;7912;51.376;6.126;2022-07-29T15:48:31;2.47;;;2.27;;
15624;SDS011;7912;51.376;6.126;2022-07-29T15:50:58;3.15;;;2.80;;
15624;SDS011;7912;51.376;6.126;2022-07-29T15:53:26;3.90;;;2.60;;
15624;SDS011;7912;51.376;6.126;2022-07-29T15:55:53;3.47;;;2.80;;
15624;SDS011;7912;51.376;6.126;2022-07-29T15:58:24;2.97;;;2.67;;
15624;SDS011;7912;51.376;6.126;2022-07-29T16:00:51;5.47;;;3.35;;
15624;SDS011;7912;51.376;6.126;2022-07-29T16:03:19;3.43;;;3.13;;
15624;SDS011;7912;51.376;6.126;2022-07-29T16:05:48;2.75;;;2.25;;
15624;SDS011;7912;51.376;6.126;2022-07-29T16:08:16;2.80;;;2.60;;
15624;SDS011;7912;51.376;6.126;2022-07-29T16:10:43;2.63;;;2.33;;
15624;SDS011;7912;51.376;6.126;2022-07-29T16:13:11;2.70;;;2.30;;
15624;SDS011;7912;51.376;6.126;2022-07-29T16:15:46;2.60;;;2.03;;
15624;SDS011;7912;51.376;6.126;2022-07-29T16:18:28;2.93;;;2.33;;
15624;SDS011;7912;51.376;6.126;2022-07-29T16:20:56;4.87;;;3.30;;
15624;SDS011;7912;51.376;6.126;2022-07-29T16:23:24;3.53;;;3.00;;
15624;SDS011;7912;51.376;6.126;2022-07-29T16:25:54;5.90;;;2.70;;
15624;SDS011;7912;51.376;6.126;2022-07-29T16:28:26;3.77;;;2.87;;
15624;SDS011;7912;51.376;6.126;2022-07-29T16:30:54;3.87;;;2.50;;
15624;SDS011;7912;51.376;6.126;2022-07-29T16:33:22;2.77;;;2.53;;
15624;SDS011;7912;51.376;6.126;2022-07-29T16:35:51;3.30;;;2.77;;
15624;SDS011;7912;51.376;6.126;2022-07-29T16:38:18;3.10;;;2.80;;
15624;SDS011;7912;51.376;6.126;2022-07-29T16:40:46;3.67;;;2.33;;
15624;SDS011;7912;51.376;6.126;2022-07-29T16:43:13;2.93;;;2.40;;
15624;SDS011;7912;51.376;6.126;2022-07-29T16:45:41;2.77;;;2.57;;
15624;SDS011;7912;51.376;6.126;2022-07-29T16:48:14;5.10;;;2.70;;
15624;SDS011;7912;51.376;6.126;2022-07-29T16:50:44;2.67;;;2.47;;
15624;SDS011;7912;51.376;6.126;2022-07-29T16:53:11;3.93;;;2.33;;
15624;SDS011;7912;51.376;6.126;2022-07-29T16:55:38;3.23;;;2.53;;
15624;SDS011;7912;51.376;6.126;2022-07-29T16:58:08;3.23;;;2.93;;